Guerneville, CA

7:34 AM PDT on August 28, 2014 (GMT -0700)
Stumptown Brewery | Change Station
CLOSE
Current Station
Personal Weather Station
Location: Guerneville, CA
Elevation: 55 ft
Nearby Weather Stations

Elev 55 ft 38.51 °N, 122.98 °W | Updated 1 minute ago

Fog
Fog
56.7 °F
Feels Like 56.7 °F
N
0.0
Wind Variable Wind from NE
Gusts 2.0 mph

Today
High -- | Low -- °F
--% Chance of Precip.
Yesterday
High -- | Low -- °F
Precip. -- in
6:37 AM 7:47 PM
Waxing Crescent, 8% visible
Pressure 30.04 in
Visibility 2.0 miles
Clouds Overcast 400 ft
Dew Point 54 °F
Humidity 92%
Rainfall 0.00 in
Snow Depth Not available.
UV 0.0 out of 12
Pollen 7.30 out of 12
Air Quality Not available.
Flu Activity Not available.
METAR KSTS 281353Z COR 00000KT 2SM BR OVC004 13/13 A3006 RMK AO2 SLP173 T01330128

More Conditions Fewer Conditions

Pressure 30.04 in
Visibility 2.0 miles
Clouds Overcast 400 ft
Dew Point 54 °F
Humidity 92%
Rainfall 0.00 in
Snow Depth Not available.
UV 0.0 out of 12
Pollen 7.30 out of 12
Air Quality Not available.
Flu Activity Not available.
METAR KSTS 281353Z COR 00000KT 2SM BR OVC004 13/13 A3006 RMK AO2 SLP173 T01330128

More Conditions Fewer Conditions

10-Day Weather Forecast

Almanac

Astronomy

Aug. 28, 2014 Rise Set
Actual Time 6:37 AM PDT 7:47 PM PDT
Civil Twilight 6:10 AM PDT 8:14 PM PDT
Nautical Twilight 5:37 AM PDT 8:47 PM PDT
Astronomical Twilight 5:03 AM PDT 9:21 PM PDT
Moon 9:32 AM PDT 9:17 PM PDT
Length of Visible Light 14h 04m
Length of Day
13h 09m
Tomorrow will be 2m 22s shorter.
Waxing Crescent, 8% of the Moon is Illuminated
Today
Waxing Crescent
Sep 2
First Quarter
Sep 8
Full
Sep 15
Last Quarter
Sep 24
New

Today's Extremes

State Highs State Lows

Community

WunderPhotos

Upload Photos

1,747,963 photos uploaded!

Nearby

Air Quality

  Air Quality AQ Index Pollutant
Thursday Moderate
PM2.5
Friday Good
PM2.5
Saturday Good
PM2.5
Sunday Good
OZONE
Monday Good
OZONE

Snow Depth

Station Depth Elevation
CSS Lab 5 in 6900 ft
Rubicon #2 0 in 7500 ft
Echo Peak 0 in 7800 ft
Tahoe City Cross 0 in 6750 ft
Independence Creek 0 in 6500 ft

Earthquake Activity

City Distance Mag. Time & Date
Napa, California 38 miles 2.6 11:57 AM PDT
2014-08-27
The Geysers, California 23 miles 2.6 7:42 AM PDT
2014-08-27
Soledad, California 169 miles 2.6 12:15 PM PDT
2014-08-26
Napa, California 38 miles 2.5 10:56 AM PDT
2014-08-26
Minimum magnitude displayed is 2.5.

Coastal Water Temperatures

Place Temperature
Point Reyes, CA 64.0 °F
Arena Cove, CA 60.1 °F
San Francisco, CA 64.9 °F
Richmond, CA 66.9 °F

Nearby Weather Stations